createdAt,value
2023-06-06T00:02:46.547Z,1.55
2023-06-06T00:07:50.545Z,1.55
2023-06-06T00:12:53.680Z,1.63
2023-06-06T00:17:57.537Z,1.73
2023-06-06T00:23:01.114Z,1.85
2023-06-06T00:28:03.831Z,1.63
2023-06-06T00:33:06.493Z,1.60
2023-06-06T00:38:10.537Z,1.27
2023-06-06T00:43:31.907Z,2.10
2023-06-06T00:48:35.062Z,1.63
2023-06-06T00:53:39.071Z,1.73
2023-06-06T00:59:02.862Z,1.42
2023-06-06T01:04:11.489Z,1.33
2023-06-06T01:09:33.846Z,1.67
2023-06-06T01:15:14.318Z,1.55
2023-06-06T01:20:19.008Z,1.65
2023-06-06T01:25:25.000Z,1.33
2023-06-06T01:30:29.177Z,1.40
2023-06-06T01:35:47.965Z,1.52
2023-06-06T01:40:54.319Z,1.40
2023-06-06T01:45:57.895Z,1.30
2023-06-06T01:51:01.175Z,1.38
2023-06-06T01:56:03.880Z,1.33
2023-06-06T02:01:07.865Z,1.60
2023-06-06T02:06:10.748Z,1.58
2023-06-06T02:11:34.547Z,1.45
2023-06-06T02:16:37.829Z,1.15
2023-06-06T02:21:43.672Z,1.38
2023-06-06T02:26:46.589Z,1.52
2023-06-06T02:31:49.469Z,1.42
2023-06-06T02:36:52.788Z,1.65
2023-06-06T02:41:55.622Z,1.50
2023-06-06T02:46:59.109Z,1.80
2023-06-06T02:52:03.022Z,2.20
2023-06-06T02:57:06.246Z,2.63
2023-06-06T03:02:27.741Z,2.15
2023-06-06T03:07:30.532Z,1.63
2023-06-06T03:12:33.548Z,1.92
2023-06-06T03:17:37.653Z,2.05
2023-06-06T03:22:41.444Z,2.10
2023-06-06T03:27:44.483Z,3.08
2023-06-06T03:32:47.555Z,3.03
2023-06-06T03:37:50.877Z,2.42
2023-06-06T03:42:54.658Z,2.40
2023-06-06T03:47:57.546Z,2.70
2023-06-06T03:53:01.187Z,1.92
2023-06-06T03:58:04.517Z,1.48
2023-06-06T04:03:27.667Z,2.03
2023-06-06T04:08:30.425Z,2.35
2023-06-06T04:13:34.026Z,2.03
2023-06-06T04:18:56.095Z,3.80
2023-06-06T04:23:58.826Z,4.75
2023-06-06T04:29:01.750Z,2.53
2023-06-06T04:34:05.235Z,3.97
2023-06-06T04:39:10.508Z,4.25
2023-06-06T04:44:16.107Z,3.17
2023-06-06T04:49:22.712Z,4.05
2023-06-06T04:54:25.391Z,2.72
2023-06-06T05:04:56.361Z,1.60
2023-06-06T05:09:59.082Z,2.38
2023-06-06T05:15:02.065Z,3.08
2023-06-06T05:20:12.117Z,2.65
2023-06-06T05:25:14.910Z,2.95
2023-06-06T05:35:20.512Z,2.58
2023-06-06T05:40:23.585Z,2.55
2023-06-06T05:45:26.821Z,2.45
2023-06-06T05:50:29.945Z,1.73
2023-06-06T05:55:37.283Z,1.60
2023-06-06T06:00:40.508Z,2.28
2023-06-06T06:05:43.852Z,2.35
2023-06-06T06:11:05.524Z,1.75
2023-06-06T06:16:26.708Z,2.55
2023-06-06T06:21:48.280Z,1.95
2023-06-06T06:27:09.802Z,1.75
2023-06-06T06:32:13.010Z,2.00
2023-06-06T06:37:18.178Z,2.00
2023-06-06T06:42:21.168Z,1.17
2023-06-06T06:47:43.712Z,1.23
2023-06-06T06:52:47.295Z,1.80
2023-06-06T06:57:50.344Z,1.60
2023-06-06T07:02:56.001Z,1.70
2023-06-06T07:08:01.292Z,1.38
2023-06-06T07:13:04.197Z,1.30
2023-06-06T07:18:07.821Z,1.30
2023-06-06T07:23:12.424Z,1.33
2023-06-06T07:28:17.115Z,1.55
2023-06-06T07:33:19.988Z,1.50
2023-06-06T07:38:41.891Z,1.35
2023-06-06T07:44:03.020Z,1.38
2023-06-06T07:49:09.720Z,1.48
2023-06-06T07:54:13.491Z,1.52
2023-06-06T07:59:16.475Z,1.40
2023-06-06T08:04:19.602Z,1.55
2023-06-06T08:09:41.160Z,1.23
2023-06-06T08:20:10.684Z,1.58
2023-06-06T08:25:14.605Z,1.25
2023-06-06T08:30:20.611Z,1.80
2023-06-06T08:35:23.835Z,4.63
2023-06-06T08:40:27.591Z,1.77
2023-06-06T08:45:53.544Z,1.25
2023-06-06T08:51:01.676Z,1.75
2023-06-06T08:56:24.133Z,1.70
2023-06-06T09:01:28.446Z,1.42
2023-06-06T09:06:33.444Z,1.67
2023-06-06T09:11:36.655Z,1.80
2023-06-06T09:16:58.986Z,1.45
2023-06-06T09:22:20.991Z,1.63
2023-06-06T09:27:49.731Z,1.35
2023-06-06T09:32:54.935Z,1.92
2023-06-06T09:38:18.113Z,1.50
2023-06-06T09:43:26.479Z,1.65
2023-06-06T09:48:30.815Z,1.48
2023-06-06T09:53:37.781Z,2.10
2023-06-06T09:58:41.480Z,2.30
2023-06-06T10:03:44.822Z,1.70
2023-06-06T10:08:50.160Z,1.30
2023-06-06T10:13:54.805Z,1.60
2023-06-06T10:18:59.280Z,1.60
2023-06-06T10:24:02.858Z,1.67
2023-06-06T10:29:14.744Z,1.35
2023-06-06T10:34:23.575Z,1.70
2023-06-06T10:39:49.303Z,2.08
2023-06-06T10:44:56.954Z,1.23
2023-06-06T10:50:10.756Z,1.30
2023-06-06T10:55:26.736Z,1.27
2023-06-06T11:00:33.399Z,1.20
2023-06-06T11:06:03.741Z,1.20
2023-06-06T11:11:32.170Z,1.50
2023-06-06T11:21:49.692Z,1.40
2023-06-06T11:27:11.522Z,1.30
2023-06-06T11:32:15.825Z,1.20
2023-06-06T11:37:37.064Z,1.30
2023-06-06T11:43:20.754Z,1.02
2023-06-06T11:48:25.130Z,1.33
2023-06-06T11:53:46.415Z,1.17
2023-06-06T11:59:45.235Z,1.40
2023-06-06T12:05:39.400Z,1.15
2023-06-06T12:10:42.390Z,1.40
2023-06-06T12:26:37.584Z,1.70
2023-06-06T12:31:42.315Z,1.50
2023-06-06T12:36:45.172Z,1.25
2023-06-06T12:46:53.754Z,1.40
2023-06-06T12:51:56.941Z,1.40
2023-06-06T12:57:01.505Z,1.52
2023-06-06T13:02:08.200Z,1.25
2023-06-06T13:07:15.451Z,1.30
2023-06-06T13:12:19.855Z,1.67
2023-06-06T13:17:23.305Z,1.42
2023-06-06T13:22:26.258Z,1.48
2023-06-06T13:27:28.934Z,1.63
2023-06-06T13:32:32.179Z,1.50
2023-06-06T13:37:54.122Z,1.42
2023-06-06T13:43:17.280Z,1.60
2023-06-06T13:48:20.580Z,1.25
2023-06-06T13:53:24.026Z,1.42
2023-06-06T13:58:52.151Z,1.60
2023-06-06T14:03:55.374Z,1.38
2023-06-06T14:08:59.036Z,1.40
2023-06-06T14:14:03.035Z,1.40
2023-06-06T14:19:08.241Z,1.55
2023-06-06T14:24:11.784Z,1.58
2023-06-06T14:29:16.270Z,1.75
2023-06-06T14:34:37.907Z,1.58
2023-06-06T14:39:40.657Z,1.55
2023-06-06T14:44:43.990Z,1.60
2023-06-06T14:55:12.226Z,1.27
2023-06-06T15:00:15.650Z,1.38
2023-06-06T15:05:38.398Z,1.60
2023-06-06T15:10:41.914Z,1.80
2023-06-06T15:20:48.095Z,1.75
2023-06-06T15:25:51.754Z,1.95
2023-06-06T15:30:56.825Z,1.60
2023-06-06T15:36:00.873Z,1.90
2023-06-06T15:41:04.850Z,1.80
2023-06-06T15:51:09.963Z,1.70
2023-06-06T15:56:15.417Z,1.98
2023-06-06T16:01:18.283Z,2.50
2023-06-06T16:06:21.434Z,2.10
2023-06-06T16:11:24.259Z,2.30
2023-06-06T16:16:27.126Z,2.47
2023-06-06T16:21:30.055Z,2.20
2023-06-06T16:26:33.341Z,2.70
2023-06-06T16:31:36.492Z,2.55
2023-06-06T16:36:42.472Z,3.05
2023-06-06T16:41:46.871Z,3.25
2023-06-06T16:46:52.516Z,3.40
2023-06-06T16:51:57.786Z,3.80
2023-06-06T16:57:01.088Z,4.78
2023-06-06T17:02:04.207Z,4.30
2023-06-06T17:07:07.399Z,5.60
2023-06-06T17:12:10.768Z,4.88
2023-06-06T17:17:15.070Z,3.90
2023-06-06T17:22:18.693Z,4.57
2023-06-06T17:27:21.720Z,3.63
2023-06-06T17:32:24.804Z,3.63
2023-06-06T17:37:29.822Z,3.40
2023-06-06T17:42:32.788Z,3.58
2023-06-06T17:47:36.091Z,4.35
2023-06-06T17:52:39.044Z,4.78
2023-06-06T17:57:41.737Z,6.30
2023-06-06T18:02:44.745Z,6.38
2023-06-06T18:07:48.057Z,5.03
2023-06-06T18:12:51.231Z,5.15
2023-06-06T18:17:54.238Z,5.70
2023-06-06T18:23:00.113Z,5.15
2023-06-06T18:28:04.638Z,5.07
2023-06-06T18:33:09.650Z,5.20
2023-06-06T18:38:13.999Z,4.30
2023-06-06T18:43:19.284Z,5.30
2023-06-06T18:48:22.706Z,5.15
2023-06-06T18:53:26.075Z,4.78
2023-06-06T18:58:33.705Z,4.15
2023-06-06T19:03:36.546Z,4.72
2023-06-06T19:08:39.805Z,4.72
2023-06-06T19:13:43.639Z,4.68
2023-06-06T19:18:46.647Z,5.15
2023-06-06T19:23:50.108Z,4.60
2023-06-06T19:28:54.113Z,4.55
2023-06-06T19:33:57.402Z,5.82
2023-06-06T19:39:00.250Z,5.72
2023-06-06T19:44:03.389Z,7.15
2023-06-06T19:49:06.514Z,7.35
2023-06-06T19:54:09.362Z,7.03
2023-06-06T19:59:12.054Z,6.85
2023-06-06T20:04:15.891Z,6.82
2023-06-06T20:09:19.493Z,4.57
2023-06-06T20:14:23.439Z,4.57
2023-06-06T20:19:26.640Z,3.78
2023-06-06T20:24:29.618Z,2.58
2023-06-06T20:29:32.891Z,3.03
2023-06-06T20:34:36.839Z,3.40
2023-06-06T20:39:53.288Z,3.08
2023-06-06T20:44:56.161Z,3.63
2023-06-06T20:49:58.982Z,3.13
2023-06-06T20:55:03.386Z,3.22
2023-06-06T21:00:10.661Z,3.10
2023-06-06T21:05:15.743Z,2.60
2023-06-06T21:10:19.359Z,2.67
2023-06-06T21:15:24.124Z,2.17
2023-06-06T21:25:29.891Z,2.22
2023-06-06T21:30:32.579Z,3.00
2023-06-06T21:35:35.332Z,3.47
2023-06-06T21:40:38.748Z,2.90
2023-06-06T21:45:41.962Z,2.72
2023-06-06T21:50:44.875Z,1.92
2023-06-06T21:55:47.634Z,2.28
2023-06-06T22:00:51.290Z,2.75
2023-06-06T22:05:54.055Z,2.10
2023-06-06T22:10:57.778Z,2.58
2023-06-06T22:16:01.043Z,3.47
2023-06-06T22:21:04.051Z,2.90
2023-06-06T22:26:11.783Z,2.60
2023-06-06T22:31:15.410Z,2.30
2023-06-06T22:36:18.215Z,2.15
2023-06-06T22:41:21.233Z,2.22
2023-06-06T22:46:23.879Z,2.80
2023-06-06T22:51:27.154Z,2.72
2023-06-06T22:56:29.888Z,1.98
2023-06-06T23:01:33.396Z,2.38
2023-06-06T23:06:38.124Z,2.33
2023-06-06T23:11:41.109Z,2.20
2023-06-06T23:16:45.367Z,2.15
2023-06-06T23:21:48.656Z,2.05
2023-06-06T23:26:51.459Z,1.92
2023-06-06T23:31:54.229Z,2.60
2023-06-06T23:36:57.441Z,2.33
2023-06-06T23:42:00.404Z,2.90
2023-06-06T23:47:03.265Z,1.73
2023-06-06T23:52:07.638Z,2.25
2023-06-06T23:57:10.976Z,2.15
